sensor_id;sensor_type;location;lat;lon;timestamp;P1;durP1;ratioP1;P2;durP2;ratioP2
38557;SDS011;24333;42.626;23.308;2023-03-01T01:51:40;7.88;;;2.65;;
38557;SDS011;24333;42.626;23.308;2023-03-01T01:54:22;12.88;;;4.40;;
38557;SDS011;24333;42.626;23.308;2023-03-01T01:56:55;5.88;;;3.10;;
38557;SDS011;24333;42.626;23.308;2023-03-01T01:59:32;8.15;;;2.95;;
38557;SDS011;24333;42.626;23.308;2023-03-01T02:01:59;12.23;;;4.43;;
38557;SDS011;24333;42.626;23.308;2023-03-01T02:04:28;16.45;;;5.20;;
38557;SDS011;24333;42.626;23.308;2023-03-01T02:06:59;5.47;;;2.95;;
38557;SDS011;24333;42.626;23.308;2023-03-01T02:09:28;4.75;;;2.53;;
38557;SDS011;24333;42.626;23.308;2023-03-01T02:11:56;3.95;;;2.08;;
38557;SDS011;24333;42.626;23.308;2023-03-01T02:14:22;3.38;;;2.03;;
38557;SDS011;24333;42.626;23.308;2023-03-01T02:16:48;4.20;;;1.90;;
38557;SDS011;24333;42.626;23.308;2023-03-01T02:19:18;4.05;;;2.22;;
38557;SDS011;24333;42.626;23.308;2023-03-01T02:24:45;3.83;;;2.08;;
38557;SDS011;24333;42.626;23.308;2023-03-01T02:27:12;5.17;;;2.00;;
38557;SDS011;24333;42.626;23.308;2023-03-01T02:29:38;6.32;;;1.88;;
38557;SDS011;24333;42.626;23.308;2023-03-01T02:32:04;4.50;;;2.40;;
38557;SDS011;24333;42.626;23.308;2023-03-01T02:34:30;4.13;;;2.30;;
38557;SDS011;24333;42.626;23.308;2023-03-01T02:37:00;4.60;;;2.33;;
38557;SDS011;24333;42.626;23.308;2023-03-01T02:39:39;4.05;;;2.22;;
38557;SDS011;24333;42.626;23.308;2023-03-01T02:42:10;6.35;;;2.38;;
38557;SDS011;24333;42.626;23.308;2023-03-01T02:44:38;3.38;;;2.10;;
38557;SDS011;24333;42.626;23.308;2023-03-01T02:47:03;3.70;;;2.15;;
38557;SDS011;24333;42.626;23.308;2023-03-01T02:49:31;4.68;;;2.15;;
38557;SDS011;24333;42.626;23.308;2023-03-01T03:59:52;6.93;;;3.10;;
38557;SDS011;24333;42.626;23.308;2023-03-01T04:02:18;9.13;;;3.65;;
38557;SDS011;24333;42.626;23.308;2023-03-01T04:04:47;6.60;;;3.38;;
38557;SDS011;24333;42.626;23.308;2023-03-01T04:07:15;8.10;;;3.47;;
38557;SDS011;24333;42.626;23.308;2023-03-01T04:09:41;9.50;;;4.53;;
38557;SDS011;24333;42.626;23.308;2023-03-01T04:12:08;9.05;;;4.03;;
38557;SDS011;24333;42.626;23.308;2023-03-01T04:14:34;7.88;;;4.10;;
38557;SDS011;24333;42.626;23.308;2023-03-01T04:17:00;7.43;;;3.58;;
38557;SDS011;24333;42.626;23.308;2023-03-01T04:19:26;10.20;;;4.72;;
38557;SDS011;24333;42.626;23.308;2023-03-01T04:21:52;6.15;;;3.35;;
38557;SDS011;24333;42.626;23.308;2023-03-01T04:24:17;5.30;;;2.40;;
38557;SDS011;24333;42.626;23.308;2023-03-01T04:26:43;7.30;;;3.45;;
38557;SDS011;24333;42.626;23.308;2023-03-01T06:33:38;2.75;;;1.20;;
38557;SDS011;24333;42.626;23.308;2023-03-01T06:36:04;2.20;;;1.08;;
38557;SDS011;24333;42.626;23.308;2023-03-01T06:38:29;1.85;;;0.98;;
38557;SDS011;24333;42.626;23.308;2023-03-01T06:40:55;2.25;;;1.33;;
38557;SDS011;24333;42.626;23.308;2023-03-01T06:43:21;1.25;;;0.90;;
38557;SDS011;24333;42.626;23.308;2023-03-01T06:45:48;2.78;;;1.25;;
38557;SDS011;24333;42.626;23.308;2023-03-01T06:48:14;2.95;;;1.33;;
38557;SDS011;24333;42.626;23.308;2023-03-01T06:50:39;2.60;;;1.58;;
38557;SDS011;24333;42.626;23.308;2023-03-01T07:08:31;3.85;;;2.00;;
38557;SDS011;24333;42.626;23.308;2023-03-01T07:10:59;3.15;;;1.52;;
38557;SDS011;24333;42.626;23.308;2023-03-01T07:13:26;3.42;;;1.90;;
38557;SDS011;24333;42.626;23.308;2023-03-01T07:15:52;3.45;;;1.85;;
38557;SDS011;24333;42.626;23.308;2023-03-01T10:30:35;4.30;;;2.33;;
38557;SDS011;24333;42.626;23.308;2023-03-01T11:11:42;7.05;;;3.42;;
38557;SDS011;24333;42.626;23.308;2023-03-01T11:14:14;17.20;;;8.80;;
38557;SDS011;24333;42.626;23.308;2023-03-01T11:16:44;8.70;;;4.68;;
38557;SDS011;24333;42.626;23.308;2023-03-01T11:21:41;5.97;;;3.20;;
38557;SDS011;24333;42.626;23.308;2023-03-01T13:19:42;10.85;;;3.63;;
38557;SDS011;24333;42.626;23.308;2023-03-01T14:46:16;14.90;;;5.22;;
38557;SDS011;24333;42.626;23.308;2023-03-01T14:48:48;8.98;;;3.55;;
38557;SDS011;24333;42.626;23.308;2023-03-01T14:51:15;6.97;;;3.70;;
38557;SDS011;24333;42.626;23.308;2023-03-01T14:53:41;16.95;;;7.32;;
38557;SDS011;24333;42.626;23.308;2023-03-01T16:28:30;34.70;;;14.20;;
38557;SDS011;24333;42.626;23.308;2023-03-01T16:30:56;23.75;;;10.32;;
38557;SDS011;24333;42.626;23.308;2023-03-01T16:33:22;24.48;;;12.32;;
38557;SDS011;24333;42.626;23.308;2023-03-01T16:35:47;39.35;;;17.85;;
38557;SDS011;24333;42.626;23.308;2023-03-01T16:38:14;35.55;;;14.43;;
38557;SDS011;24333;42.626;23.308;2023-03-01T16:40:39;39.47;;;14.88;;
38557;SDS011;24333;42.626;23.308;2023-03-01T16:43:12;43.60;;;15.25;;
38557;SDS011;24333;42.626;23.308;2023-03-01T16:45:38;63.38;;;21.52;;
38557;SDS011;24333;42.626;23.308;2023-03-01T16:48:05;32.75;;;11.52;;
38557;SDS011;24333;42.626;23.308;2023-03-01T16:50:31;19.88;;;8.40;;
38557;SDS011;24333;42.626;23.308;2023-03-01T16:52:57;53.47;;;21.38;;
38557;SDS011;24333;42.626;23.308;2023-03-01T16:55:22;42.08;;;13.00;;
38557;SDS011;24333;42.626;23.308;2023-03-01T16:57:48;35.90;;;13.80;;
38557;SDS011;24333;42.626;23.308;2023-03-01T17:00:14;33.92;;;11.15;;
38557;SDS011;24333;42.626;23.308;2023-03-01T17:02:40;18.02;;;7.93;;
38557;SDS011;24333;42.626;23.308;2023-03-01T17:05:07;19.88;;;7.65;;
38557;SDS011;24333;42.626;23.308;2023-03-01T17:07:35;20.35;;;8.82;;
38557;SDS011;24333;42.626;23.308;2023-03-01T17:12:36;17.52;;;6.85;;
38557;SDS011;24333;42.626;23.308;2023-03-01T17:15:03;26.20;;;9.50;;
38557;SDS011;24333;42.626;23.308;2023-03-01T17:20:06;13.20;;;5.30;;
38557;SDS011;24333;42.626;23.308;2023-03-01T17:22:32;14.80;;;6.40;;
38557;SDS011;24333;42.626;23.308;2023-03-01T17:24:57;12.45;;;5.32;;
38557;SDS011;24333;42.626;23.308;2023-03-01T18:26:18;16.00;;;6.22;;
38557;SDS011;24333;42.626;23.308;2023-03-01T18:35:53;9.75;;;4.97;;
